createdAt,value
2023-05-08T00:00:25.530Z,75.10
2023-05-08T00:03:14.564Z,75.42
2023-05-08T00:05:43.084Z,75.31
2023-05-08T00:08:11.767Z,75.51
2023-05-08T00:10:40.957Z,75.98
2023-05-08T00:13:09.199Z,75.70
2023-05-08T00:15:38.744Z,75.65
2023-05-08T00:18:07.303Z,75.40
2023-05-08T00:20:35.812Z,76.05
2023-05-08T00:27:05.234Z,76.87
2023-05-08T00:29:33.501Z,77.00
2023-05-08T00:32:03.005Z,76.76
2023-05-08T00:34:32.105Z,77.19
2023-05-08T00:37:01.706Z,76.56
2023-05-08T00:39:30.024Z,76.20
2023-05-08T00:41:58.569Z,76.08
2023-05-08T00:44:27.162Z,76.64
2023-05-08T00:46:55.931Z,77.04
2023-05-08T00:49:28.611Z,77.47
2023-05-08T00:51:57.090Z,78.23
2023-05-08T00:54:28.542Z,78.67
2023-05-08T00:56:57.854Z,78.88
2023-05-08T00:59:29.498Z,79.29
2023-05-08T01:01:57.857Z,79.45
2023-05-08T01:04:28.488Z,79.44
2023-05-08T01:06:57.190Z,78.75
2023-05-08T01:09:25.395Z,78.02
2023-05-08T01:12:25.282Z,77.69
2023-05-08T01:15:14.959Z,77.64
2023-05-08T01:17:48.706Z,77.15
2023-05-08T01:20:43.665Z,76.76
2023-05-08T01:23:33.449Z,76.68
2023-05-08T01:26:22.924Z,76.89
2023-05-08T01:29:26.121Z,76.28
2023-05-08T01:32:26.364Z,76.23
2023-05-08T01:40:28.131Z,77.16
2023-05-08T01:43:14.359Z,77.21
2023-05-08T01:45:52.137Z,77.61
2023-05-08T01:48:35.568Z,77.42
2023-05-08T01:51:20.005Z,76.66
2023-05-08T01:53:54.232Z,76.01
2023-05-08T01:56:28.256Z,75.57
2023-05-08T01:59:01.222Z,75.32
2023-05-08T02:01:34.991Z,74.98
2023-05-08T02:04:09.431Z,74.93
2023-05-08T02:06:40.488Z,74.84
2023-05-08T02:09:11.630Z,74.97
2023-05-08T02:11:44.613Z,74.76
2023-05-08T02:14:16.059Z,74.33
2023-05-08T02:16:46.922Z,74.43
2023-05-08T02:19:17.314Z,74.16
2023-05-08T02:21:50.721Z,73.89
2023-05-08T02:24:21.139Z,73.93
2023-05-08T02:26:56.488Z,74.71
2023-05-08T02:29:26.805Z,75.28
2023-05-08T02:31:59.422Z,75.89
2023-05-08T02:34:31.306Z,76.35
2023-05-08T02:37:03.101Z,76.64
2023-05-08T02:39:33.835Z,76.48
2023-05-08T02:42:02.724Z,76.46
2023-05-08T02:44:31.514Z,76.96
2023-05-08T02:47:16.169Z,77.86
2023-05-08T02:49:59.192Z,77.95
2023-05-08T02:52:47.152Z,78.25
2023-05-08T02:55:31.479Z,78.23
2023-05-08T02:58:25.559Z,78.40
2023-05-08T03:01:23.000Z,77.80
2023-05-08T03:04:16.503Z,77.31
2023-05-08T03:06:50.079Z,76.15
2023-05-08T03:09:26.757Z,75.96
2023-05-08T03:12:10.918Z,75.55
2023-05-08T03:14:47.685Z,76.28
2023-05-08T03:17:19.224Z,76.81
2023-05-08T03:19:55.802Z,77.14
2023-05-08T03:22:44.351Z,77.16
2023-05-08T03:25:17.235Z,77.64
2023-05-08T03:27:48.676Z,77.50
2023-05-08T03:30:21.870Z,76.93
2023-05-08T03:33:04.293Z,77.28
2023-05-08T03:35:37.884Z,78.06
2023-05-08T03:38:08.709Z,78.08
2023-05-08T03:40:39.439Z,77.47
2023-05-08T03:43:10.282Z,77.54
2023-05-08T03:45:42.152Z,78.13
2023-05-08T03:48:16.035Z,77.98
2023-05-08T03:50:45.278Z,78.15
2023-05-08T03:53:16.588Z,77.76
2023-05-08T03:55:44.983Z,77.82
2023-05-08T03:58:34.162Z,77.70
2023-05-08T04:01:13.169Z,77.80
2023-05-08T04:03:48.881Z,77.54
2023-05-08T04:06:42.144Z,77.79
2023-05-08T04:09:36.225Z,77.59
2023-05-08T04:12:39.311Z,76.94
2023-05-08T04:15:20.580Z,76.79
2023-05-08T04:18:05.306Z,76.81
2023-05-08T04:20:35.937Z,76.59
2023-05-08T04:23:08.009Z,77.36
2023-05-08T04:25:40.467Z,77.55
2023-05-08T04:28:12.079Z,77.72
2023-05-08T04:30:43.568Z,77.16
2023-05-08T04:33:16.272Z,75.74
2023-05-08T04:35:46.574Z,75.65
2023-05-08T04:38:15.154Z,75.56
2023-05-08T04:42:04.536Z,74.25
2023-05-08T04:44:35.479Z,74.56
2023-05-08T04:47:04.288Z,74.79
2023-05-08T04:49:32.846Z,74.49
2023-05-08T04:52:01.380Z,74.12
2023-05-08T04:54:30.836Z,73.51
2023-05-08T04:56:59.514Z,73.34
2023-05-08T04:59:29.850Z,73.05
2023-05-08T05:02:03.199Z,72.48
2023-05-08T05:04:59.380Z,72.64
2023-05-08T05:07:28.444Z,73.03
2023-05-08T05:09:57.240Z,72.56
2023-05-08T05:12:25.727Z,72.53
2023-05-08T05:14:54.082Z,72.03
2023-05-08T05:17:22.519Z,72.03
2023-05-08T05:19:53.332Z,72.71
2023-05-08T05:22:24.661Z,72.90
2023-05-08T05:24:57.367Z,73.48
2023-05-08T05:27:54.926Z,72.91
2023-05-08T05:30:24.096Z,72.94
2023-05-08T05:32:53.092Z,73.30
2023-05-08T05:35:21.889Z,73.32
2023-05-08T05:37:52.096Z,73.57
2023-05-08T05:41:35.494Z,73.02
2023-05-08T05:44:04.430Z,73.03
2023-05-08T05:46:34.573Z,73.75
2023-05-08T05:49:04.661Z,73.57
2023-05-08T05:51:34.668Z,73.47
2023-05-08T05:54:03.051Z,73.63
2023-05-08T05:56:34.261Z,73.84
2023-05-08T05:59:02.891Z,73.43
2023-05-08T06:01:32.466Z,72.86
2023-05-08T06:04:27.973Z,72.23
2023-05-08T06:06:57.982Z,71.87
2023-05-08T06:09:27.312Z,72.18
2023-05-08T06:11:55.802Z,72.21
2023-05-08T06:14:25.213Z,72.18
2023-05-08T06:16:53.696Z,72.64
2023-05-08T06:19:24.550Z,73.03
2023-05-08T06:21:52.891Z,72.80
2023-05-08T06:24:22.293Z,73.11
2023-05-08T06:26:50.368Z,73.13
2023-05-08T06:29:18.743Z,72.65
2023-05-08T06:31:47.330Z,72.59
2023-05-08T06:34:15.507Z,72.77
2023-05-08T06:36:43.575Z,72.70
2023-05-08T06:39:36.433Z,73.40
2023-05-08T06:42:08.222Z,73.96
2023-05-08T06:44:42.805Z,74.69
2023-05-08T06:47:11.704Z,74.59
2023-05-08T06:49:42.939Z,74.48
2023-05-08T06:56:18.684Z,74.84
2023-05-08T06:58:56.581Z,74.89
2023-05-08T07:01:35.964Z,74.02
2023-05-08T07:08:38.352Z,74.11
2023-05-08T07:11:06.465Z,73.29
2023-05-08T07:13:34.686Z,72.64
2023-05-08T07:16:03.927Z,73.68
2023-05-08T07:24:15.625Z,74.74
2023-05-08T07:26:44.020Z,74.29
2023-05-08T07:29:14.185Z,74.53
2023-05-08T07:31:42.587Z,75.01
2023-05-08T07:34:10.866Z,73.43
2023-05-08T07:36:40.997Z,71.96
2023-05-08T07:39:09.681Z,71.76
2023-05-08T07:41:39.325Z,71.91
2023-05-08T07:44:07.808Z,72.89
2023-05-08T07:46:38.397Z,72.50
2023-05-08T07:49:07.307Z,72.85
2023-05-08T07:51:35.654Z,73.89
2023-05-08T07:54:03.776Z,74.84
2023-05-08T07:56:32.034Z,74.23
2023-05-08T07:59:00.591Z,73.69
2023-05-08T08:01:29.032Z,73.39
2023-05-08T08:03:57.424Z,74.45
2023-05-08T08:06:27.254Z,74.49
2023-05-08T08:08:55.844Z,73.26
2023-05-08T08:11:24.321Z,74.75
2023-05-08T08:13:52.694Z,75.00
2023-05-08T08:16:47.827Z,74.70
2023-05-08T08:19:16.052Z,75.13
2023-05-08T08:21:46.813Z,75.38
2023-05-08T08:24:15.189Z,76.51
2023-05-08T08:26:43.687Z,75.71
2023-05-08T08:29:14.093Z,75.96
2023-05-08T08:31:42.872Z,76.30
2023-05-08T08:34:11.987Z,75.60
2023-05-08T08:36:41.691Z,75.09
2023-05-08T08:39:14.743Z,74.01
2023-05-08T08:41:46.938Z,74.90
2023-05-08T08:44:15.226Z,75.79
2023-05-08T08:46:53.551Z,76.96
2023-05-08T08:49:32.714Z,77.12
2023-05-08T08:52:12.303Z,77.93
2023-05-08T08:54:47.238Z,77.47
2023-05-08T08:58:02.326Z,76.08
2023-05-08T09:00:33.652Z,76.13
2023-05-08T09:03:02.851Z,76.28
2023-05-08T09:05:32.064Z,75.79
2023-05-08T09:08:01.191Z,76.06
2023-05-08T09:10:29.619Z,76.69
2023-05-08T09:12:58.044Z,76.65
2023-05-08T09:15:26.586Z,74.41
2023-05-08T09:17:55.097Z,74.68
2023-05-08T09:20:23.967Z,73.84
2023-05-08T09:22:55.109Z,74.37
2023-05-08T09:25:24.091Z,74.81
2023-05-08T09:27:52.383Z,73.04
2023-05-08T09:30:20.730Z,75.02
2023-05-08T09:32:50.658Z,74.12
2023-05-08T09:35:18.823Z,73.37
2023-05-08T09:37:48.860Z,74.23
2023-05-08T09:40:21.130Z,75.74
2023-05-08T09:42:51.637Z,75.22
2023-05-08T09:45:46.141Z,75.55
2023-05-08T09:48:14.509Z,75.57
2023-05-08T09:50:43.722Z,74.81
2023-05-08T09:53:12.245Z,75.42
2023-05-08T09:55:49.537Z,76.99
2023-05-08T09:58:24.605Z,77.30
2023-05-08T10:00:52.928Z,77.09
2023-05-08T10:03:22.645Z,77.59
2023-05-08T10:05:52.101Z,78.47
2023-05-08T10:08:40.328Z,77.60
2023-05-08T10:11:22.747Z,78.50
2023-05-08T10:13:51.229Z,78.30
2023-05-08T10:16:22.903Z,78.25
2023-05-08T10:18:57.695Z,78.07
2023-05-08T10:21:36.737Z,79.24
2023-05-08T10:24:15.178Z,79.63
2023-05-08T10:27:05.058Z,79.72
2023-05-08T10:29:48.571Z,80.02
2023-05-08T10:32:20.239Z,79.36
2023-05-08T10:35:01.043Z,78.51
2023-05-08T10:37:34.383Z,77.72
2023-05-08T10:40:06.550Z,77.81
2023-05-08T10:42:38.822Z,77.36
2023-05-08T10:45:09.867Z,78.12
2023-05-08T10:48:20.137Z,78.60
2023-05-08T10:50:52.285Z,77.56
2023-05-08T10:53:45.430Z,77.12
2023-05-08T10:56:14.023Z,77.31
2023-05-08T10:58:42.620Z,77.16
2023-05-08T11:01:14.316Z,76.42
2023-05-08T11:03:47.471Z,76.85
2023-05-08T11:06:16.065Z,77.17
2023-05-08T11:08:55.524Z,76.38
2023-05-08T11:11:32.856Z,76.91
2023-05-08T11:14:11.819Z,77.32
2023-05-08T11:16:58.868Z,77.22
2023-05-08T11:19:28.864Z,76.88
2023-05-08T11:22:16.353Z,77.08
2023-05-08T11:25:11.256Z,77.67
2023-05-08T11:27:48.748Z,78.18
2023-05-08T11:30:37.746Z,79.01
2023-05-08T11:33:07.440Z,78.48
2023-05-08T11:40:54.869Z,79.32
2023-05-08T11:43:37.986Z,79.51
2023-05-08T11:46:17.697Z,79.05
2023-05-08T11:48:46.512Z,78.55
2023-05-08T11:51:21.755Z,79.68
2023-05-08T11:53:50.340Z,79.95
2023-05-08T11:56:19.736Z,80.15
2023-05-08T11:58:48.216Z,80.50
2023-05-08T12:01:21.149Z,80.62
2023-05-08T12:03:49.754Z,81.05
2023-05-08T12:06:19.757Z,80.26
2023-05-08T12:08:48.024Z,79.13
2023-05-08T12:11:27.309Z,79.16
2023-05-08T12:13:55.669Z,78.70
2023-05-08T12:16:45.619Z,78.43
2023-05-08T12:19:14.732Z,79.13
2023-05-08T12:21:49.595Z,79.15
2023-05-08T12:24:26.365Z,78.91
2023-05-08T12:26:57.089Z,78.87
2023-05-08T12:29:28.049Z,77.76
2023-05-08T12:37:07.519Z,77.61
2023-05-08T12:39:38.062Z,77.30
2023-05-08T12:42:06.443Z,77.00
2023-05-08T12:44:34.793Z,76.56
2023-05-08T12:47:07.375Z,75.48
2023-05-08T12:49:38.312Z,75.46
2023-05-08T12:52:09.659Z,75.33
2023-05-08T12:54:49.544Z,75.61
2023-05-08T12:57:23.797Z,75.25
2023-05-08T13:00:06.500Z,75.69
2023-05-08T13:02:39.319Z,76.75
2023-05-08T13:05:19.164Z,76.78
2023-05-08T13:07:47.617Z,76.65
2023-05-08T13:10:21.401Z,77.17
2023-05-08T13:12:52.538Z,77.53
2023-05-08T13:15:25.160Z,77.89
2023-05-08T13:17:53.610Z,77.37
2023-05-08T13:20:22.131Z,78.33
2023-05-08T13:22:50.606Z,77.66
2023-05-08T13:25:23.693Z,77.36
2023-05-08T13:27:52.177Z,77.82
2023-05-08T13:35:10.557Z,78.72
2023-05-08T13:37:38.780Z,78.08
2023-05-08T13:40:10.246Z,77.74
2023-05-08T13:42:39.061Z,77.73
2023-05-08T13:45:08.884Z,77.75
2023-05-08T13:47:37.617Z,78.10
2023-05-08T13:50:11.064Z,78.28
2023-05-08T13:52:41.112Z,79.22
2023-05-08T13:55:13.802Z,80.19
2023-05-08T13:57:42.541Z,79.60
2023-05-08T14:00:40.027Z,80.39
2023-05-08T14:03:09.863Z,80.97
2023-05-08T14:05:39.010Z,81.56
2023-05-08T14:08:07.279Z,81.71
2023-05-08T14:10:35.609Z,82.92
2023-05-08T14:13:03.858Z,83.03
2023-05-08T14:15:36.834Z,82.20
2023-05-08T14:18:06.574Z,82.39
2023-05-08T14:20:34.805Z,81.97
2023-05-08T14:23:02.862Z,81.81
2023-05-08T14:25:31.557Z,81.41
2023-05-08T14:28:00.046Z,81.76
2023-05-08T14:35:36.969Z,81.41
2023-05-08T14:38:05.429Z,82.57
2023-05-08T14:40:33.599Z,82.26
2023-05-08T14:43:02.320Z,82.32
2023-05-08T14:45:30.866Z,81.82
2023-05-08T14:47:59.165Z,81.82
2023-05-08T14:50:28.341Z,81.51
2023-05-08T14:52:56.516Z,81.90
2023-05-08T14:55:25.128Z,82.11
2023-05-08T14:57:53.735Z,81.98
2023-05-08T15:00:22.468Z,81.82
2023-05-08T15:02:51.535Z,82.12
2023-05-08T15:05:21.112Z,82.32
2023-05-08T15:07:50.881Z,82.36
2023-05-08T15:10:19.354Z,81.77
2023-05-08T15:12:47.592Z,81.78
2023-05-08T15:15:16.748Z,81.50
2023-05-08T15:17:46.205Z,81.67
2023-05-08T15:20:14.716Z,81.96
2023-05-08T15:22:43.204Z,82.29
2023-05-08T15:25:12.370Z,82.01
2023-05-08T15:27:42.199Z,82.92
2023-05-08T15:30:13.052Z,82.67
2023-05-08T15:32:45.174Z,81.83
2023-05-08T15:35:14.215Z,81.26
2023-05-08T15:37:43.027Z,80.87
2023-05-08T15:40:11.865Z,81.25
2023-05-08T15:42:40.258Z,81.16
2023-05-08T15:45:08.927Z,81.28
2023-05-08T15:47:37.403Z,80.40
2023-05-08T15:50:08.252Z,80.80
2023-05-08T15:52:36.516Z,80.89
2023-05-08T15:55:06.341Z,81.21
2023-05-08T15:57:34.721Z,80.93
2023-05-08T16:00:03.110Z,80.74
2023-05-08T16:02:34.110Z,80.71
2023-05-08T16:05:04.047Z,80.44
2023-05-08T16:07:32.338Z,79.36
2023-05-08T16:10:00.795Z,79.38
2023-05-08T16:12:29.180Z,79.03
2023-05-08T16:15:01.654Z,79.08
2023-05-08T16:17:30.665Z,79.18
2023-05-08T16:20:03.029Z,79.36
2023-05-08T16:22:31.503Z,80.23
2023-05-08T16:24:59.980Z,79.88
2023-05-08T16:27:31.342Z,78.75
2023-05-08T16:30:00.136Z,77.99
2023-05-08T16:32:29.069Z,78.32
2023-05-08T16:34:57.602Z,79.18
2023-05-08T16:37:26.104Z,78.39
2023-05-08T16:39:54.244Z,78.71
2023-05-08T16:42:22.722Z,78.88
2023-05-08T16:44:51.409Z,78.78
2023-05-08T16:47:19.756Z,78.30
2023-05-08T16:49:48.067Z,78.03
2023-05-08T16:52:16.236Z,78.15
2023-05-08T16:54:45.425Z,78.21
2023-05-08T16:57:13.508Z,78.67
2023-05-08T16:59:43.384Z,79.03
2023-05-08T17:02:12.372Z,78.62
2023-05-08T17:05:30.768Z,79.29
2023-05-08T17:07:58.943Z,79.62
2023-05-08T17:10:27.615Z,79.67
2023-05-08T17:12:56.813Z,79.67
2023-05-08T17:15:28.092Z,79.59
2023-05-08T17:17:56.880Z,80.19
2023-05-08T17:20:25.320Z,80.31
2023-05-08T17:22:55.373Z,80.24
2023-05-08T17:25:24.345Z,80.13
2023-05-08T17:27:52.804Z,80.59
2023-05-08T17:30:21.103Z,80.84
2023-05-08T17:32:52.380Z,80.62
2023-05-08T17:35:21.030Z,80.73
2023-05-08T17:37:50.924Z,80.92
2023-05-08T17:40:22.059Z,81.24
2023-05-08T17:42:50.284Z,80.93
2023-05-08T17:45:19.038Z,80.64
2023-05-08T17:47:47.851Z,80.44
2023-05-08T17:50:16.405Z,80.54
2023-05-08T17:52:44.527Z,80.11
2023-05-08T17:55:13.258Z,79.97
2023-05-08T17:57:41.431Z,79.77
2023-05-08T18:00:10.349Z,79.46
2023-05-08T18:02:59.895Z,78.92
2023-05-08T18:05:28.478Z,78.92
2023-05-08T18:07:57.882Z,79.19
2023-05-08T18:10:28.000Z,79.01
2023-05-08T18:12:57.468Z,79.17
2023-05-08T18:15:25.983Z,79.00
2023-05-08T18:17:54.470Z,78.60
2023-05-08T18:20:25.921Z,78.41
2023-05-08T18:22:54.287Z,78.03
2023-05-08T18:25:22.394Z,77.98
2023-05-08T18:27:53.504Z,78.06
2023-05-08T18:30:21.679Z,77.57
2023-05-08T18:32:51.002Z,77.45
2023-05-08T18:35:19.878Z,77.67
2023-05-08T18:37:48.291Z,77.25
2023-05-08T18:40:16.658Z,77.01
2023-05-08T18:42:47.310Z,76.90
2023-05-08T18:45:15.836Z,77.46
2023-05-08T18:47:44.054Z,77.68
2023-05-08T18:50:14.635Z,78.21
2023-05-08T18:53:02.885Z,78.36
2023-05-08T18:55:31.465Z,78.35
2023-05-08T18:57:59.745Z,78.17
2023-05-08T19:00:27.853Z,77.61
2023-05-08T19:02:56.431Z,77.35
2023-05-08T19:05:24.977Z,77.14
2023-05-08T19:07:53.417Z,77.81
2023-05-08T19:10:21.942Z,77.93
2023-05-08T19:12:51.643Z,77.74
2023-05-08T19:15:19.950Z,77.97
2023-05-08T19:17:48.275Z,77.80
2023-05-08T19:20:18.344Z,77.97
2023-05-08T19:22:47.717Z,77.92
2023-05-08T19:25:16.523Z,78.34
2023-05-08T19:27:44.989Z,78.47
2023-05-08T19:30:13.816Z,78.67
2023-05-08T19:32:42.658Z,78.79
2023-05-08T19:35:11.344Z,78.52
2023-05-08T19:37:39.626Z,78.92
2023-05-08T19:40:09.831Z,78.65
2023-05-08T19:42:38.628Z,78.09
2023-05-08T19:45:09.056Z,78.03
2023-05-08T19:47:38.854Z,78.36
2023-05-08T19:50:12.505Z,78.99
2023-05-08T19:52:41.333Z,78.74
2023-05-08T19:59:17.139Z,78.73
2023-05-08T20:01:45.734Z,78.89
2023-05-08T20:04:13.993Z,79.19
2023-05-08T20:06:45.030Z,79.58
2023-05-08T20:09:14.023Z,79.30
2023-05-08T20:11:42.807Z,79.71
2023-05-08T20:14:10.901Z,79.72
2023-05-08T20:16:39.105Z,79.54
2023-05-08T20:19:10.100Z,79.66
2023-05-08T20:21:38.477Z,80.24
2023-05-08T20:24:07.164Z,80.19
2023-05-08T20:26:35.449Z,80.35
2023-05-08T20:29:03.911Z,80.19
2023-05-08T20:31:36.224Z,80.15
2023-05-08T20:34:04.461Z,79.97
2023-05-08T20:36:33.039Z,79.73
2023-05-08T20:39:01.625Z,79.81
2023-05-08T20:41:54.702Z,79.36
2023-05-08T20:44:22.815Z,79.33
2023-05-08T20:46:52.077Z,78.82
2023-05-08T20:49:20.835Z,79.07
2023-05-08T20:51:49.315Z,78.45
2023-05-08T20:54:17.786Z,79.07
2023-05-08T20:56:46.375Z,78.97
2023-05-08T20:59:22.034Z,78.92
2023-05-08T21:01:51.287Z,78.28
2023-05-08T21:04:19.523Z,78.44
2023-05-08T21:06:48.593Z,78.14
2023-05-08T21:09:18.605Z,78.28
2023-05-08T21:11:47.292Z,78.68
2023-05-08T21:14:16.282Z,78.87
2023-05-08T21:16:44.717Z,79.01
2023-05-08T21:19:17.634Z,79.58
2023-05-08T21:21:48.142Z,79.30
2023-05-08T21:24:16.660Z,79.65
2023-05-08T21:26:45.350Z,79.52
2023-05-08T21:29:13.540Z,78.74
2023-05-08T21:31:43.496Z,78.45
2023-05-08T21:34:12.528Z,78.47
2023-05-08T21:36:41.006Z,78.28
2023-05-08T21:39:09.679Z,78.53
2023-05-08T21:41:38.481Z,78.54
2023-05-08T21:44:06.670Z,78.34
2023-05-08T21:46:35.255Z,78.49
2023-05-08T21:49:04.704Z,78.03
2023-05-08T21:51:33.225Z,77.64
2023-05-08T21:54:01.795Z,77.72
2023-05-08T21:56:30.087Z,77.64
2023-05-08T21:58:58.359Z,77.39
2023-05-08T22:01:26.745Z,77.45
2023-05-08T22:03:55.547Z,78.32
2023-05-08T22:06:25.750Z,78.21
2023-05-08T22:08:54.215Z,78.18
2023-05-08T22:11:22.703Z,78.02
2023-05-08T22:13:51.082Z,78.06
2023-05-08T22:16:19.361Z,77.90
2023-05-08T22:18:48.186Z,77.91
2023-05-08T22:21:16.450Z,77.75
2023-05-08T22:23:44.795Z,77.90
2023-05-08T22:26:13.488Z,77.71
2023-05-08T22:28:42.469Z,77.90
2023-05-08T22:31:10.755Z,78.07
2023-05-08T22:33:39.438Z,78.12
2023-05-08T22:36:34.517Z,78.13
2023-05-08T22:39:03.067Z,78.13
2023-05-08T22:41:31.390Z,78.10
2023-05-08T22:43:59.975Z,77.93
2023-05-08T22:46:28.909Z,77.62
2023-05-08T22:48:57.549Z,77.48
2023-05-08T22:51:25.670Z,77.81
2023-05-08T22:54:19.536Z,77.60
2023-05-08T22:56:49.203Z,77.94
2023-05-08T22:59:17.893Z,77.23
2023-05-08T23:01:46.404Z,77.41
2023-05-08T23:04:14.756Z,77.44
2023-05-08T23:06:43.126Z,77.14
2023-05-08T23:09:11.421Z,77.16
2023-05-08T23:11:39.684Z,77.61
2023-05-08T23:14:07.949Z,78.07
2023-05-08T23:16:36.499Z,77.84
2023-05-08T23:19:04.907Z,77.66
2023-05-08T23:21:35.024Z,77.73
2023-05-08T23:24:03.312Z,78.20
2023-05-08T23:26:32.816Z,78.58
2023-05-08T23:29:01.497Z,78.38
2023-05-08T23:31:30.023Z,78.76
2023-05-08T23:33:58.757Z,78.64
2023-05-08T23:36:27.127Z,78.51
2023-05-08T23:38:55.311Z,78.44
2023-05-08T23:41:24.318Z,78.20
2023-05-08T23:43:52.786Z,77.86
2023-05-08T23:46:22.732Z,77.48
2023-05-08T23:48:51.335Z,77.49
2023-05-08T23:51:21.914Z,77.32
2023-05-08T23:53:51.419Z,76.99
2023-05-08T23:56:19.700Z,76.81
2023-05-08T23:58:48.411Z,77.31
